ポンタ・デルガダ の空港の天気 - METARとTAF

ポンタ・デルガダ空港 ( LPPD / PDL ) - ポルトガル ポンタ・デルガダ (サンミゲル島)
飛行場実況気象(Metar)
観測時間10/23 13:00 AZOST (10/23 13:00 UTC)
風向・風速南 7m/s
視程10km以上
天気現象
少しの雲 雲底高度 370m
全天の4割程度の雲 雲底高度 760m
気温21℃
湿度88%
気圧1020hPa
METARLPPD 231300Z 19013KT 9999 FEW012 SCT025 21/19 Q1020
過去の天気等 Google飛行場航空写真 Wunderground天気予報

過去48時間のMETAR

飛行場予報(TAF)
発表時間: 10/23 11:00 AZOST (10/23 11:00 UTC)
予報対象時間: 23日12時 AZOST ~ 24日12時 AZOST
風向・風速南南西 8m/s
視程10km以上
全天の4割程度の雲 雲底高度 370m
全天の8割程度の雲 雲底高度 910m
23日12時 AZOST ~ 24日12時 AZOST に一時的に
視程3,000m
天気現象霧雨雨 もや
全天の4割程度の雲 雲底高度 60m
全天の8割程度の雲 雲底高度 120m
TAF LPPD 231100Z 2312/2412 21015KT 9999 SCT012 BKN030
TEMPO 2312/2412 3000 DZRA BR SCT002 BKN004